createdAt,value
2023-05-05T00:00:12.857Z,97.38
2023-05-05T00:01:12.848Z,97.49
2023-05-05T00:02:12.918Z,99.14
2023-05-05T00:03:12.888Z,99.65
2023-05-05T00:04:12.842Z,99.99
2023-05-05T00:05:12.942Z,99.99
2023-05-05T00:06:12.793Z,99.99
2023-05-05T00:07:12.796Z,99.99
2023-05-05T00:08:12.808Z,99.99
2023-05-05T00:09:12.777Z,99.99
2023-05-05T00:10:12.770Z,99.99
2023-05-05T00:11:12.767Z,99.99
2023-05-05T00:12:12.752Z,99.99
2023-05-05T00:13:12.885Z,99.96
2023-05-05T00:14:12.721Z,99.86
2023-05-05T00:15:12.724Z,99.86
2023-05-05T00:16:12.693Z,99.24
2023-05-05T00:17:12.728Z,98.31
2023-05-05T00:18:12.667Z,97.79
2023-05-05T00:19:13.238Z,98.10
2023-05-05T00:20:12.656Z,98.93
2023-05-05T00:21:12.660Z,99.65
2023-05-05T00:22:12.658Z,99.86
2023-05-05T00:23:12.606Z,99.99
2023-05-05T00:24:12.630Z,99.99
2023-05-05T00:25:12.609Z,99.99
2023-05-05T00:26:12.609Z,99.99
2023-05-05T00:27:12.566Z,99.99
2023-05-05T00:28:12.567Z,99.99
2023-05-05T00:29:12.557Z,99.99
2023-05-05T00:30:12.546Z,99.99
2023-05-05T00:31:12.632Z,99.65
2023-05-05T00:32:12.750Z,98.25
2023-05-05T00:33:12.554Z,97.74
2023-05-05T00:34:12.534Z,98.25
2023-05-05T00:35:12.508Z,98.30
2023-05-05T00:36:12.511Z,98.19
2023-05-05T00:37:12.504Z,98.09
2023-05-05T00:38:12.491Z,99.13
2023-05-05T00:39:12.489Z,99.74
2023-05-05T00:40:12.490Z,99.99
2023-05-05T00:41:12.432Z,99.99
2023-05-05T00:42:12.440Z,99.99
2023-05-05T00:43:12.424Z,99.99
2023-05-05T00:44:12.430Z,99.99
2023-05-05T00:45:12.408Z,99.85
2023-05-05T00:46:12.407Z,99.99
2023-05-05T00:47:12.381Z,99.99
2023-05-05T00:48:12.364Z,99.99
2023-05-05T00:49:12.463Z,99.99
2023-05-05T00:50:12.364Z,99.99
2023-05-05T00:51:12.333Z,99.99
2023-05-05T00:52:12.330Z,99.99
2023-05-05T00:53:12.328Z,99.99
2023-05-05T00:54:12.334Z,99.99
2023-05-05T00:55:12.311Z,99.99
2023-05-05T00:56:12.302Z,99.99
2023-05-05T00:57:12.273Z,99.99
2023-05-05T00:58:12.266Z,99.99
2023-05-05T00:59:12.318Z,99.95
2023-05-05T01:00:12.264Z,99.54
2023-05-05T01:01:12.277Z,99.23
2023-05-05T01:02:12.259Z,99.07
2023-05-05T01:03:12.288Z,99.43
2023-05-05T01:04:12.408Z,99.99
2023-05-05T01:05:12.307Z,99.99
2023-05-05T01:06:12.201Z,99.99
2023-05-05T01:07:12.252Z,99.99
2023-05-05T01:08:12.188Z,99.99
2023-05-05T01:09:13.015Z,99.99
2023-05-05T01:10:19.584Z,99.99
2023-05-05T01:11:12.134Z,99.99
2023-05-05T01:12:12.172Z,99.99
2023-05-05T01:13:12.304Z,99.99
2023-05-05T01:14:12.116Z,99.99
2023-05-05T01:15:12.092Z,99.99
2023-05-05T01:16:12.163Z,99.99
2023-05-05T01:17:12.090Z,99.99
2023-05-05T01:18:12.063Z,99.99
2023-05-05T01:19:12.041Z,99.99
2023-05-05T01:20:12.038Z,99.99
2023-05-05T01:21:12.042Z,99.99
2023-05-05T01:22:12.036Z,99.99
2023-05-05T01:23:12.002Z,99.99
2023-05-05T01:24:12.002Z,99.99
2023-05-05T01:25:11.977Z,99.99
2023-05-05T01:26:11.982Z,99.99
2023-05-05T01:27:12.008Z,99.99
2023-05-05T01:28:11.952Z,99.99
2023-05-05T01:29:11.944Z,99.99
2023-05-05T01:30:11.944Z,99.99
2023-05-05T01:31:11.972Z,99.99
2023-05-05T01:32:11.939Z,99.99
2023-05-05T01:33:11.902Z,99.99
2023-05-05T01:34:11.895Z,99.99
2023-05-05T01:35:11.885Z,99.99
2023-05-05T01:36:11.913Z,99.99
2023-05-05T01:37:11.855Z,99.99
2023-05-05T01:38:12.532Z,99.99
2023-05-05T01:39:11.848Z,99.99
2023-05-05T01:40:11.832Z,99.99
2023-05-05T01:41:11.902Z,99.99
2023-05-05T01:42:11.808Z,99.99
2023-05-05T01:43:11.795Z,99.65
2023-05-05T01:44:11.806Z,99.18
2023-05-05T01:45:11.808Z,99.29
2023-05-05T01:46:11.839Z,99.49
2023-05-05T01:47:11.778Z,99.29
2023-05-05T01:48:11.758Z,99.13
2023-05-05T01:49:11.752Z,99.43
2023-05-05T01:50:11.757Z,99.64
2023-05-05T01:51:11.742Z,99.99
2023-05-05T01:52:11.713Z,99.99
2023-05-05T01:53:11.746Z,99.99
2023-05-05T01:54:11.689Z,99.99
2023-05-05T01:55:11.695Z,99.99
2023-05-05T01:56:11.737Z,99.99
2023-05-05T01:57:11.652Z,99.99
2023-05-05T01:58:11.656Z,99.43
2023-05-05T01:59:11.718Z,98.40
2023-05-05T02:00:11.681Z,98.24
2023-05-05T02:01:11.646Z,98.92
2023-05-05T02:02:11.663Z,99.54
2023-05-05T02:03:11.710Z,99.99
2023-05-05T02:04:11.627Z,99.99
2023-05-05T02:05:11.610Z,99.99
2023-05-05T02:06:11.637Z,99.99
2023-05-05T02:07:11.553Z,99.99
2023-05-05T02:08:11.583Z,99.99
2023-05-05T02:09:11.572Z,99.99
2023-05-05T02:10:11.524Z,99.99
2023-05-05T02:11:11.522Z,99.99
2023-05-05T02:12:11.548Z,99.99
2023-05-05T02:13:11.623Z,99.99
2023-05-05T02:14:11.517Z,99.99
2023-05-05T02:15:11.492Z,99.99
2023-05-05T02:16:11.547Z,99.99
2023-05-05T02:17:11.452Z,99.99
2023-05-05T02:18:11.496Z,99.99
2023-05-05T02:19:11.445Z,99.99
2023-05-05T02:20:11.435Z,99.99
2023-05-05T02:21:11.421Z,99.99
2023-05-05T02:22:11.440Z,99.99
2023-05-05T02:23:11.412Z,99.99
2023-05-05T02:24:11.395Z,99.99
2023-05-05T02:25:11.381Z,99.99
2023-05-05T02:26:11.390Z,99.99
2023-05-05T02:27:11.459Z,99.99
2023-05-05T02:28:11.392Z,99.99
2023-05-05T02:29:11.339Z,99.99
2023-05-05T02:30:11.359Z,99.27
2023-05-05T02:31:11.396Z,98.91
2023-05-05T02:32:11.343Z,99.01
2023-05-05T02:33:11.295Z,99.22
2023-05-05T02:34:11.298Z,99.94
2023-05-05T02:35:11.272Z,99.99
2023-05-05T02:36:11.266Z,99.99
2023-05-05T02:37:11.287Z,99.99
2023-05-05T02:38:11.252Z,99.99
2023-05-05T02:39:11.275Z,99.99
2023-05-05T02:40:11.266Z,99.99
2023-05-05T02:41:11.231Z,99.99
2023-05-05T02:42:11.253Z,99.99
2023-05-05T02:43:11.310Z,99.99
2023-05-05T02:44:11.191Z,99.99
2023-05-05T02:45:11.181Z,99.99
2023-05-05T02:46:11.410Z,99.99
2023-05-05T02:47:11.156Z,99.99
2023-05-05T02:48:11.158Z,99.99
2023-05-05T02:49:11.124Z,99.99
2023-05-05T02:50:11.254Z,99.99
2023-05-05T02:51:11.642Z,99.99
2023-05-05T02:52:11.107Z,99.99
2023-05-05T02:53:11.097Z,99.99
2023-05-05T02:54:11.108Z,99.99
2023-05-05T02:55:11.117Z,99.99
2023-05-05T02:56:11.077Z,99.99
2023-05-05T02:57:11.052Z,99.99
2023-05-05T02:58:11.120Z,99.99
2023-05-05T02:59:11.047Z,99.99
2023-05-05T03:00:11.074Z,99.99
2023-05-05T03:01:11.028Z,99.99
2023-05-05T03:02:11.013Z,99.99
2023-05-05T03:03:11.081Z,99.99
2023-05-05T03:04:11.000Z,99.99
2023-05-05T03:05:11.000Z,99.99
2023-05-05T03:06:10.993Z,99.99
2023-05-05T03:07:10.968Z,99.99
2023-05-05T03:08:10.957Z,99.99
2023-05-05T03:09:10.993Z,99.99
2023-05-05T03:10:10.928Z,99.99
2023-05-05T03:11:10.910Z,99.99
2023-05-05T03:12:10.916Z,99.99
2023-05-05T03:13:10.920Z,99.99
2023-05-05T03:14:10.903Z,99.99
2023-05-05T03:15:10.912Z,99.99
2023-05-05T03:16:10.850Z,99.99
2023-05-05T03:17:10.788Z,99.99
2023-05-05T03:18:10.875Z,99.99
2023-05-05T03:19:10.811Z,99.99
2023-05-05T03:20:10.820Z,99.99
2023-05-05T03:21:10.816Z,99.99
2023-05-05T03:22:10.793Z,99.99
2023-05-05T03:23:11.107Z,99.99
2023-05-05T03:24:10.732Z,99.99
2023-05-05T03:25:10.736Z,99.99
2023-05-05T03:26:10.765Z,99.99
2023-05-05T03:27:10.725Z,99.99
2023-05-05T03:28:10.699Z,99.99
2023-05-05T03:29:10.679Z,99.99
2023-05-05T03:30:10.802Z,99.99
2023-05-05T03:31:10.659Z,99.99
2023-05-05T03:32:10.741Z,99.99
2023-05-05T03:33:10.673Z,99.99
2023-05-05T03:34:10.613Z,99.99
2023-05-05T03:35:10.606Z,99.99
2023-05-05T03:36:10.636Z,99.99
2023-05-05T03:37:10.615Z,99.99
2023-05-05T03:38:10.603Z,99.99
2023-05-05T03:39:10.651Z,99.99
2023-05-05T03:40:10.591Z,99.99
2023-05-05T03:41:10.563Z,99.99
2023-05-05T03:42:10.583Z,99.99
2023-05-05T03:43:10.532Z,99.99
2023-05-05T03:44:11.140Z,99.99
2023-05-05T03:45:11.063Z,99.99
2023-05-05T03:46:10.536Z,99.87
2023-05-05T03:47:10.535Z,99.40
2023-05-05T03:48:10.464Z,99.09
2023-05-05T03:49:10.478Z,99.09
2023-05-05T03:50:10.448Z,99.30
2023-05-05T03:51:10.463Z,99.61
2023-05-05T03:52:10.828Z,99.99
2023-05-05T03:53:10.449Z,99.99
2023-05-05T03:54:10.401Z,99.99
2023-05-05T03:55:10.433Z,99.99
2023-05-05T03:56:10.473Z,99.99
2023-05-05T03:57:10.382Z,99.99
2023-05-05T03:58:10.369Z,99.99
2023-05-05T03:59:10.363Z,99.99
2023-05-05T04:00:10.438Z,99.99
2023-05-05T04:01:10.349Z,99.99
2023-05-05T04:02:10.374Z,99.92
2023-05-05T04:03:10.576Z,99.99
2023-05-05T04:04:10.336Z,99.99
2023-05-05T04:05:10.323Z,99.99
2023-05-05T04:06:10.297Z,99.99
2023-05-05T04:07:10.333Z,99.99
2023-05-05T04:08:10.272Z,99.99
2023-05-05T04:09:10.274Z,99.99
2023-05-05T04:10:10.434Z,99.99
2023-05-05T04:11:10.237Z,99.51
2023-05-05T04:12:10.221Z,99.24
2023-05-05T04:13:10.319Z,99.04
2023-05-05T04:14:10.268Z,99.14
2023-05-05T04:15:10.214Z,99.24
2023-05-05T04:16:10.215Z,99.55
2023-05-05T04:17:10.174Z,99.96
2023-05-05T04:18:10.188Z,99.99
2023-05-05T04:19:11.164Z,99.99
2023-05-05T04:20:10.330Z,99.99
2023-05-05T04:21:11.052Z,99.99
2023-05-05T04:22:10.273Z,99.99
2023-05-05T04:23:10.137Z,99.99
2023-05-05T04:24:10.116Z,99.99
2023-05-05T04:25:10.129Z,99.99
2023-05-05T04:26:10.070Z,99.99
2023-05-05T04:27:11.039Z,99.99
2023-05-05T04:28:10.110Z,99.99
2023-05-05T04:29:10.294Z,99.99
2023-05-05T04:30:10.146Z,99.99
2023-05-05T04:31:10.074Z,99.99
2023-05-05T04:32:10.008Z,99.99
2023-05-05T04:33:10.029Z,99.99
2023-05-05T04:34:09.993Z,99.69
2023-05-05T04:35:10.007Z,99.43
2023-05-05T04:36:09.965Z,99.13
2023-05-05T04:37:09.970Z,99.02
2023-05-05T04:38:09.964Z,98.57
2023-05-05T04:39:09.950Z,97.95
2023-05-05T04:40:10.204Z,97.69
2023-05-05T04:41:09.921Z,97.49
2023-05-05T04:42:09.922Z,97.39
2023-05-05T04:43:09.932Z,97.03
2023-05-05T04:44:09.910Z,96.72
2023-05-05T04:45:09.880Z,96.27
2023-05-05T04:46:09.921Z,95.92
2023-05-05T04:47:11.475Z,95.40
2023-05-05T04:48:09.860Z,94.84
2023-05-05T04:49:09.829Z,94.18
2023-05-05T04:50:10.007Z,91.99
2023-05-05T04:51:09.809Z,90.20
2023-05-05T04:52:10.098Z,91.22
2023-05-05T04:53:09.798Z,88.82
2023-05-05T04:54:09.787Z,88.27
2023-05-05T04:55:09.762Z,88.47
2023-05-05T04:56:09.772Z,87.85
2023-05-05T04:57:09.772Z,87.70
2023-05-05T04:58:09.725Z,88.51
2023-05-05T04:59:09.729Z,89.17
2023-05-05T05:00:10.112Z,88.56
2023-05-05T05:01:09.714Z,87.32
2023-05-05T05:02:09.718Z,87.94
2023-05-05T05:03:09.738Z,88.72
2023-05-05T05:04:09.675Z,88.31
2023-05-05T05:05:09.677Z,86.73
2023-05-05T05:06:09.759Z,86.48
2023-05-05T05:07:09.654Z,85.63
2023-05-05T05:08:09.630Z,85.28
2023-05-05T05:09:09.630Z,85.14
2023-05-05T05:10:09.900Z,82.84
2023-05-05T05:11:09.624Z,81.62
2023-05-05T05:12:09.590Z,82.70
2023-05-05T05:13:11.983Z,82.20
2023-05-05T05:14:09.565Z,82.03
2023-05-05T05:15:09.590Z,82.68
2023-05-05T05:16:09.573Z,84.36
2023-05-05T05:17:09.533Z,83.74
2023-05-05T05:18:09.892Z,82.65
2023-05-05T05:19:09.529Z,82.27
2023-05-05T05:20:09.963Z,81.68
2023-05-05T05:21:09.507Z,80.28
2023-05-05T05:22:09.484Z,77.18
2023-05-05T05:23:09.477Z,77.62
2023-05-05T05:24:09.533Z,75.13
2023-05-05T05:25:09.485Z,72.65
2023-05-05T05:26:09.454Z,74.11
2023-05-05T05:27:10.277Z,71.26
2023-05-05T05:28:10.896Z,71.50
2023-05-05T05:29:09.424Z,69.02
2023-05-05T05:30:09.566Z,68.28
2023-05-05T05:31:09.401Z,68.41
2023-05-05T05:32:09.612Z,69.70
2023-05-05T05:33:09.483Z,69.43
2023-05-05T05:34:10.742Z,68.66
2023-05-05T05:35:09.349Z,67.47
2023-05-05T05:36:09.333Z,66.88
2023-05-05T05:37:09.354Z,66.64
2023-05-05T05:38:09.343Z,65.08
2023-05-05T05:39:09.369Z,65.20
2023-05-05T05:40:09.485Z,67.10
2023-05-05T05:41:09.318Z,68.18
2023-05-05T05:42:09.271Z,71.09
2023-05-05T05:43:09.523Z,74.15
2023-05-05T05:44:09.263Z,74.55
2023-05-05T05:45:09.256Z,70.72
2023-05-05T05:46:09.510Z,72.45
2023-05-05T05:47:09.224Z,73.57
2023-05-05T05:48:09.274Z,73.71
2023-05-05T05:49:09.208Z,72.99
2023-05-05T05:50:09.355Z,76.05
2023-05-05T05:51:09.209Z,74.42
2023-05-05T05:52:09.179Z,75.60
2023-05-05T05:53:09.180Z,76.56
2023-05-05T05:54:09.137Z,75.74
2023-05-05T05:55:09.209Z,74.25
2023-05-05T05:56:09.162Z,75.57
2023-05-05T05:57:09.132Z,75.37
2023-05-05T05:58:09.140Z,78.53
2023-05-05T05:59:09.186Z,75.98
2023-05-05T06:00:09.406Z,77.04
2023-05-05T06:01:09.094Z,76.32
2023-05-05T06:02:09.148Z,77.25
2023-05-05T06:03:09.869Z,78.06
2023-05-05T06:04:09.716Z,77.14
2023-05-05T06:05:09.030Z,76.63
2023-05-05T06:06:09.141Z,78.33
2023-05-05T06:07:09.016Z,76.66
2023-05-05T06:08:08.992Z,77.75
2023-05-05T06:09:09.261Z,74.62
2023-05-05T06:10:25.898Z,75.51
2023-05-05T06:11:09.380Z,74.55
2023-05-05T06:12:08.947Z,74.15
2023-05-05T06:13:09.317Z,72.21
2023-05-05T06:14:08.932Z,71.39
2023-05-05T06:15:09.258Z,72.31
2023-05-05T06:16:08.991Z,75.13
2023-05-05T06:17:09.042Z,72.58
2023-05-05T06:18:08.945Z,74.01
2023-05-05T06:19:08.898Z,73.50
2023-05-05T06:20:09.031Z,72.58
2023-05-05T06:21:08.864Z,72.78
2023-05-05T06:22:08.846Z,71.67
2023-05-05T06:23:08.852Z,74.48
2023-05-05T06:24:08.833Z,71.80
2023-05-05T06:25:08.865Z,71.87
2023-05-05T06:26:08.804Z,72.58
2023-05-05T06:27:08.794Z,69.13
2023-05-05T06:28:08.795Z,69.94
2023-05-05T06:29:10.457Z,68.59
2023-05-05T06:30:08.990Z,70.18
2023-05-05T06:31:08.776Z,69.34
2023-05-05T06:32:08.753Z,69.64
2023-05-05T06:33:08.785Z,69.74
2023-05-05T06:34:08.791Z,69.51
2023-05-05T06:35:08.746Z,69.54
2023-05-05T06:36:08.723Z,65.96
2023-05-05T06:37:08.710Z,64.21
2023-05-05T06:38:08.676Z,63.27
2023-05-05T06:39:08.689Z,64.07
2023-05-05T06:40:08.822Z,61.47
2023-05-05T06:41:08.654Z,64.41
2023-05-05T06:42:08.642Z,64.31
2023-05-05T06:43:08.761Z,64.48
2023-05-05T06:44:08.653Z,63.67
2023-05-05T06:45:08.910Z,62.76
2023-05-05T06:46:08.649Z,62.15
2023-05-05T06:47:08.603Z,63.17
2023-05-05T06:48:08.656Z,62.66
2023-05-05T06:49:08.581Z,60.41
2023-05-05T06:50:09.036Z,60.61
2023-05-05T06:51:08.584Z,63.34
2023-05-05T06:52:08.526Z,60.78
2023-05-05T06:53:10.983Z,60.27
2023-05-05T06:54:08.517Z,59.77
2023-05-05T06:55:08.528Z,60.50
2023-05-05T06:56:08.491Z,62.26
2023-05-05T06:57:08.508Z,62.08
2023-05-05T06:58:08.487Z,62.89
2023-05-05T06:59:08.532Z,61.37
2023-05-05T07:00:08.574Z,64.51
2023-05-05T07:01:08.614Z,63.50
2023-05-05T07:02:08.481Z,61.62
2023-05-05T07:03:08.497Z,59.41
2023-05-05T07:04:08.423Z,58.37
2023-05-05T07:05:08.422Z,59.86
2023-05-05T07:06:08.432Z,56.93
2023-05-05T07:07:08.403Z,57.59
2023-05-05T07:08:08.357Z,57.54
2023-05-05T07:09:08.377Z,58.23
2023-05-05T07:10:08.531Z,57.15
2023-05-05T07:11:08.330Z,54.53
2023-05-05T07:12:08.355Z,54.73
2023-05-05T07:13:08.417Z,58.32
2023-05-05T07:14:08.298Z,58.47
2023-05-05T07:15:23.447Z,60.12
2023-05-05T07:16:08.386Z,60.55
2023-05-05T07:17:08.305Z,60.25
2023-05-05T07:18:08.289Z,58.25
2023-05-05T07:19:08.247Z,60.02
2023-05-05T07:20:08.419Z,58.01
2023-05-05T07:21:08.291Z,58.03
2023-05-05T07:22:08.220Z,54.73
2023-05-05T07:23:08.273Z,50.48
2023-05-05T07:24:08.209Z,50.68
2023-05-05T07:25:08.194Z,53.00
2023-05-05T07:26:08.593Z,53.17
2023-05-05T07:27:08.276Z,48.49
2023-05-05T07:28:08.246Z,46.84
2023-05-05T07:29:08.178Z,45.06
2023-05-05T07:30:12.365Z,47.31
2023-05-05T07:31:08.151Z,48.01
2023-05-05T07:32:08.144Z,48.58
2023-05-05T07:33:08.344Z,48.04
2023-05-05T07:34:08.091Z,47.69
2023-05-05T07:35:08.111Z,49.89
2023-05-05T07:36:08.088Z,49.94
2023-05-05T07:37:08.053Z,45.58
2023-05-05T07:38:08.705Z,47.96
2023-05-05T07:39:08.104Z,47.81
2023-05-05T07:40:08.344Z,47.87
2023-05-05T07:41:08.073Z,46.94
2023-05-05T07:42:08.061Z,48.43
2023-05-05T07:43:07.996Z,51.59
2023-05-05T07:44:08.027Z,49.08
2023-05-05T07:45:08.002Z,49.21
2023-05-05T07:46:07.997Z,51.21
2023-05-05T07:47:07.948Z,50.78
2023-05-05T07:48:07.982Z,53.09
2023-05-05T07:49:07.949Z,53.83
2023-05-05T07:50:08.043Z,54.71
2023-05-05T07:51:07.912Z,52.64
2023-05-05T07:52:07.961Z,51.24
2023-05-05T07:53:14.354Z,47.49
2023-05-05T07:54:07.934Z,49.89
2023-05-05T07:55:07.872Z,48.81
2023-05-05T07:56:07.877Z,47.77
2023-05-05T07:57:07.846Z,51.12
2023-05-05T07:58:07.949Z,50.71
2023-05-05T07:59:07.846Z,50.04
2023-05-05T08:00:08.016Z,48.99
2023-05-05T08:01:07.835Z,51.26
2023-05-05T08:02:07.846Z,50.84
2023-05-05T08:03:09.741Z,48.05
2023-05-05T08:04:07.951Z,47.03
2023-05-05T08:05:08.236Z,47.71
2023-05-05T08:06:07.756Z,48.05
2023-05-05T08:07:07.738Z,45.84
2023-05-05T08:08:07.830Z,46.28
2023-05-05T08:09:07.861Z,47.96
2023-05-05T08:10:07.742Z,49.01
2023-05-05T08:11:07.718Z,50.46
2023-05-05T08:12:07.848Z,50.51
2023-05-05T08:13:07.747Z,55.29
2023-05-05T08:14:07.716Z,55.79
2023-05-05T08:15:08.001Z,55.31
2023-05-05T08:16:07.792Z,53.90
2023-05-05T08:17:07.672Z,54.00
2023-05-05T08:18:07.693Z,55.74
2023-05-05T08:19:17.665Z,57.65
2023-05-05T08:20:07.681Z,57.38
2023-05-05T08:21:07.655Z,56.37
2023-05-05T08:22:07.623Z,56.07
2023-05-05T08:23:07.604Z,57.28
2023-05-05T08:24:07.572Z,55.90
2023-05-05T08:25:07.789Z,56.20
2023-05-05T08:26:07.599Z,58.52
2023-05-05T08:27:07.597Z,57.81
2023-05-05T08:28:07.539Z,56.10
2023-05-05T08:29:07.558Z,56.30
2023-05-05T08:30:07.514Z,57.81
2023-05-05T08:31:07.629Z,56.70
2023-05-05T08:32:07.513Z,59.45
2023-05-05T08:33:07.674Z,58.82
2023-05-05T08:34:07.468Z,56.81
2023-05-05T08:35:07.882Z,56.81
2023-05-05T08:36:07.657Z,56.24
2023-05-05T08:37:07.436Z,56.72
2023-05-05T08:38:07.685Z,56.55
2023-05-05T08:39:07.409Z,55.14
2023-05-05T08:40:07.488Z,57.65
2023-05-05T08:41:07.408Z,56.24
2023-05-05T08:42:07.425Z,58.29
2023-05-05T08:43:07.409Z,59.00
2023-05-05T08:44:07.387Z,56.81
2023-05-05T08:45:07.810Z,57.28
2023-05-05T08:46:07.345Z,56.68
2023-05-05T08:47:07.381Z,56.90
2023-05-05T08:48:07.354Z,57.81
2023-05-05T08:49:07.311Z,57.41
2023-05-05T08:50:07.350Z,57.31
2023-05-05T08:51:07.295Z,58.32
2023-05-05T08:52:07.272Z,58.12
2023-05-05T08:53:07.264Z,57.21
2023-05-05T08:54:07.280Z,58.72
2023-05-05T08:55:07.438Z,58.01
2023-05-05T08:56:07.242Z,56.70
2023-05-05T08:57:07.229Z,58.62
2023-05-05T08:58:07.225Z,58.92
2023-05-05T08:59:07.235Z,59.15
2023-05-05T09:00:07.220Z,59.56
2023-05-05T09:01:07.295Z,59.76
2023-05-05T09:02:07.175Z,59.56
2023-05-05T09:03:07.369Z,60.46
2023-05-05T09:04:07.203Z,60.36
2023-05-05T09:05:07.396Z,58.65
2023-05-05T09:06:07.138Z,57.94
2023-05-05T09:07:07.116Z,58.95
2023-05-05T09:08:07.141Z,57.94
2023-05-05T09:09:07.106Z,60.06
2023-05-05T09:10:07.641Z,58.85
2023-05-05T09:11:07.624Z,58.92
2023-05-05T09:12:07.069Z,57.31
2023-05-05T09:13:07.175Z,56.98
2023-05-05T09:14:07.094Z,56.57
2023-05-05T09:15:07.223Z,59.40
2023-05-05T09:16:07.098Z,58.09
2023-05-05T09:17:07.121Z,58.39
2023-05-05T09:18:07.163Z,56.57
2023-05-05T09:19:07.022Z,59.50
2023-05-05T09:20:07.000Z,57.58
2023-05-05T09:21:06.965Z,58.49
2023-05-05T09:22:06.985Z,58.76
2023-05-05T09:23:06.975Z,58.26
2023-05-05T09:24:08.407Z,58.16
2023-05-05T09:25:07.123Z,57.43
2023-05-05T09:26:07.106Z,55.99
2023-05-05T09:27:06.952Z,54.35
2023-05-05T09:28:06.927Z,54.23
2023-05-05T09:29:06.887Z,53.00
2023-05-05T09:30:06.881Z,54.10
2023-05-05T09:31:06.980Z,54.40
2023-05-05T09:32:06.872Z,51.09
2023-05-05T09:33:06.871Z,52.09
2023-05-05T09:34:06.900Z,54.60
2023-05-05T09:35:07.015Z,55.60
2023-05-05T09:36:06.869Z,54.17
2023-05-05T09:37:06.815Z,52.82
2023-05-05T09:38:06.865Z,51.69
2023-05-05T09:39:06.830Z,51.07
2023-05-05T09:40:06.810Z,49.76
2023-05-05T09:41:07.226Z,47.69
2023-05-05T09:42:06.755Z,52.39
2023-05-05T09:43:06.739Z,50.11
2023-05-05T09:44:06.757Z,50.42
2023-05-05T09:45:06.848Z,50.62
2023-05-05T09:46:06.860Z,50.21
2023-05-05T09:47:18.103Z,50.35
2023-05-05T09:48:06.767Z,48.80
2023-05-05T09:49:06.707Z,43.84
2023-05-05T09:50:07.003Z,44.83
2023-05-05T09:51:06.686Z,42.29
2023-05-05T09:52:06.707Z,42.82
2023-05-05T09:53:06.651Z,39.40
2023-05-05T09:54:06.652Z,38.67
2023-05-05T09:55:06.768Z,38.71
2023-05-05T09:56:06.677Z,35.75
2023-05-05T09:57:06.589Z,40.17
2023-05-05T09:58:06.607Z,39.65
2023-05-05T09:59:06.607Z,32.90
2023-05-05T10:00:06.740Z,31.98
2023-05-05T10:01:06.665Z,37.07
2023-05-05T10:02:06.645Z,35.18
2023-05-05T10:03:06.791Z,34.75
2023-05-05T10:04:06.593Z,33.72
2023-05-05T10:05:06.659Z,32.95
2023-05-05T10:06:06.571Z,33.79
2023-05-05T10:07:06.559Z,33.58
2023-05-05T10:08:06.482Z,35.38
2023-05-05T10:09:06.488Z,33.67
2023-05-05T10:10:06.568Z,34.86
2023-05-05T10:11:06.479Z,37.76
2023-05-05T10:12:06.459Z,37.78
2023-05-05T10:13:06.467Z,38.83
2023-05-05T10:14:06.433Z,37.05
2023-05-05T10:15:06.422Z,36.43
2023-05-05T10:16:06.480Z,35.44
2023-05-05T10:17:06.380Z,38.18
2023-05-05T10:18:08.225Z,34.80
2023-05-05T10:19:06.379Z,35.77
2023-05-05T10:20:06.476Z,31.54
2023-05-05T10:21:06.351Z,34.94
2023-05-05T10:22:06.352Z,35.69
2023-05-05T10:23:06.387Z,37.26
2023-05-05T10:24:06.388Z,38.70
2023-05-05T10:25:06.316Z,39.48
2023-05-05T10:26:06.325Z,38.58
2023-05-05T10:27:06.279Z,37.01
2023-05-05T10:28:06.311Z,35.80
2023-05-05T10:29:06.254Z,37.12
2023-05-05T10:30:06.583Z,37.60
2023-05-05T10:31:20.081Z,42.13
2023-05-05T10:32:24.422Z,42.74
2023-05-05T10:33:27.272Z,44.71
2023-05-05T10:34:06.353Z,41.60
2023-05-05T10:35:06.206Z,38.47
2023-05-05T10:36:06.259Z,44.35
2023-05-05T10:37:06.206Z,43.65
2023-05-05T10:38:06.236Z,43.71
2023-05-05T10:39:06.245Z,41.22
2023-05-05T10:40:06.295Z,44.16
2023-05-05T10:41:06.684Z,42.36
2023-05-05T10:42:06.162Z,42.14
2023-05-05T10:43:06.240Z,38.77
2023-05-05T10:44:06.123Z,36.98
2023-05-05T10:45:06.163Z,38.47
2023-05-05T10:46:06.247Z,40.31
2023-05-05T10:47:06.086Z,42.40
2023-05-05T10:48:06.191Z,42.64
2023-05-05T10:49:06.126Z,44.05
2023-05-05T10:50:06.210Z,46.15
2023-05-05T10:51:06.095Z,42.25
2023-05-05T10:52:06.048Z,47.05
2023-05-05T10:53:06.049Z,48.69
2023-05-05T10:54:06.789Z,49.78
2023-05-05T10:55:06.077Z,48.10
2023-05-05T10:56:06.198Z,48.32
2023-05-05T10:57:06.658Z,49.80
2023-05-05T10:58:05.975Z,49.41
2023-05-05T10:59:06.690Z,49.28
2023-05-05T11:00:06.192Z,49.40
2023-05-05T11:01:05.985Z,50.10
2023-05-05T11:02:05.968Z,48.80
2023-05-05T11:03:06.080Z,49.43
2023-05-05T11:04:06.727Z,53.54
2023-05-05T11:05:06.454Z,53.04
2023-05-05T11:06:05.885Z,52.14
2023-05-05T11:07:05.881Z,54.66
2023-05-05T11:08:05.897Z,53.36
2023-05-05T11:09:05.882Z,52.19
2023-05-05T11:10:06.116Z,55.86
2023-05-05T11:11:05.850Z,52.39
2023-05-05T11:12:05.854Z,55.79
2023-05-05T11:13:05.868Z,55.69
2023-05-05T11:14:05.830Z,53.29
2023-05-05T11:15:05.812Z,53.59
2023-05-05T11:16:05.847Z,53.39
2023-05-05T11:17:05.778Z,52.49
2023-05-05T11:18:07.521Z,56.79
2023-05-05T11:19:05.766Z,56.09
2023-05-05T11:20:05.836Z,54.46
2023-05-05T11:21:05.735Z,54.66
2023-05-05T11:22:05.733Z,55.66
2023-05-05T11:23:05.711Z,55.33
2023-05-05T11:24:05.747Z,55.51
2023-05-05T11:25:05.689Z,53.84
2023-05-05T11:26:05.917Z,56.93
2023-05-05T11:27:05.661Z,56.43
2023-05-05T11:28:05.724Z,57.33
2023-05-05T11:29:05.734Z,54.27
2023-05-05T11:30:05.730Z,56.85
2023-05-05T11:31:05.702Z,55.66
2023-05-05T11:32:05.619Z,53.56
2023-05-05T11:33:05.879Z,53.54
2023-05-05T11:34:05.616Z,54.43
2023-05-05T11:35:05.617Z,52.09
2023-05-05T11:36:06.814Z,51.40
2023-05-05T11:37:06.184Z,53.02
2023-05-05T11:38:05.882Z,51.35
2023-05-05T11:39:05.547Z,55.76
2023-05-05T11:40:05.709Z,52.99
2023-05-05T11:41:05.529Z,52.59
2023-05-05T11:42:10.057Z,56.98
2023-05-05T11:43:05.540Z,54.51
2023-05-05T11:44:05.525Z,55.24
2023-05-05T11:45:05.493Z,53.34
2023-05-05T11:46:05.516Z,55.26
2023-05-05T11:47:05.502Z,57.65
2023-05-05T11:48:05.464Z,58.88
2023-05-05T11:49:05.455Z,58.51
2023-05-05T11:50:05.498Z,56.31
2023-05-05T11:51:05.470Z,56.61
2023-05-05T11:52:05.430Z,58.71
2023-05-05T11:53:05.418Z,55.51
2023-05-05T11:54:05.430Z,57.01
2023-05-05T11:55:05.397Z,56.61
2023-05-05T11:56:05.511Z,55.51
2023-05-05T11:57:05.420Z,58.31
2023-05-05T11:58:05.341Z,58.41
2023-05-05T11:59:05.340Z,57.26
2023-05-05T12:00:05.415Z,57.50
2023-05-05T12:01:05.368Z,57.64
2023-05-05T12:02:06.110Z,53.24
2023-05-05T12:03:05.425Z,55.48
2023-05-05T12:04:05.459Z,56.96
2023-05-05T12:05:05.274Z,57.48
2023-05-05T12:06:05.361Z,58.64
2023-05-05T12:07:05.247Z,59.49
2023-05-05T12:08:05.233Z,60.92
2023-05-05T12:09:05.243Z,60.95
2023-05-05T12:10:05.269Z,60.31
2023-05-05T12:11:05.239Z,62.17
2023-05-05T12:12:05.199Z,62.60
2023-05-05T12:13:05.265Z,65.14
2023-05-05T12:14:05.174Z,64.87
2023-05-05T12:15:05.176Z,66.11
2023-05-05T12:16:05.178Z,67.61
2023-05-05T12:17:05.142Z,65.73
2023-05-05T12:18:05.162Z,67.18
2023-05-05T12:19:05.169Z,68.28
2023-05-05T12:20:05.310Z,71.03
2023-05-05T12:21:05.113Z,74.25
2023-05-05T12:22:05.123Z,74.69
2023-05-05T12:23:05.079Z,77.84
2023-05-05T12:24:05.154Z,78.69
2023-05-05T12:25:05.077Z,78.69
2023-05-05T12:26:05.110Z,78.32
2023-05-05T12:27:05.041Z,80.18
2023-05-05T12:28:05.087Z,81.59
2023-05-05T12:29:05.087Z,83.95
2023-05-05T12:30:05.019Z,85.76
2023-05-05T12:31:05.075Z,88.53
2023-05-05T12:32:05.228Z,89.34
2023-05-05T12:33:05.420Z,89.17
2023-05-05T12:34:04.981Z,90.03
2023-05-05T12:35:04.968Z,91.94
2023-05-05T12:36:04.958Z,92.85
2023-05-05T12:37:04.951Z,93.91
2023-05-05T12:38:04.948Z,95.78
2023-05-05T12:39:04.981Z,96.39
2023-05-05T12:40:04.926Z,96.69
2023-05-05T12:41:04.897Z,96.69
2023-05-05T12:42:04.910Z,96.59
2023-05-05T12:43:04.907Z,96.65
2023-05-05T12:44:04.866Z,96.85
2023-05-05T12:45:04.853Z,97.05
2023-05-05T12:46:04.973Z,96.85
2023-05-05T12:47:04.886Z,96.34
2023-05-05T12:48:04.918Z,93.92
2023-05-05T12:49:04.921Z,92.71
2023-05-05T12:50:04.815Z,92.61
2023-05-05T12:51:04.795Z,92.81
2023-05-05T12:52:04.862Z,90.83